sensor_id;sensor_type;location;lat;lon;timestamp;P1;durP1;ratioP1;P2;durP2;ratioP2
33453;SDS011;39400;49.744;7.012;2023-07-29T00:01:29;7.55;;;6.82;;
33453;SDS011;39400;49.744;7.012;2023-07-29T00:03:55;7.43;;;6.22;;
33453;SDS011;39400;49.744;7.012;2023-07-29T00:06:20;9.85;;;7.45;;
33453;SDS011;39400;49.744;7.012;2023-07-29T00:08:45;6.82;;;6.13;;
33453;SDS011;39400;49.744;7.012;2023-07-29T00:11:11;8.18;;;5.25;;
33453;SDS011;39400;49.744;7.012;2023-07-29T00:13:36;5.85;;;4.68;;
33453;SDS011;39400;49.744;7.012;2023-07-29T00:16:01;7.20;;;5.82;;
33453;SDS011;39400;49.744;7.012;2023-07-29T00:18:26;7.28;;;5.22;;
33453;SDS011;39400;49.744;7.012;2023-07-29T00:20:52;5.72;;;4.93;;
33453;SDS011;39400;49.744;7.012;2023-07-29T00:23:17;9.70;;;6.28;;
33453;SDS011;39400;49.744;7.012;2023-07-29T00:25:43;6.97;;;6.07;;
33453;SDS011;39400;49.744;7.012;2023-07-29T00:28:08;8.98;;;5.95;;
33453;SDS011;39400;49.744;7.012;2023-07-29T00:30:33;6.82;;;5.88;;
33453;SDS011;39400;49.744;7.012;2023-07-29T00:32:58;6.60;;;5.82;;
33453;SDS011;39400;49.744;7.012;2023-07-29T00:35:24;8.95;;;5.53;;
33453;SDS011;39400;49.744;7.012;2023-07-29T00:37:49;5.78;;;5.18;;
33453;SDS011;39400;49.744;7.012;2023-07-29T00:40:16;7.70;;;6.93;;
33453;SDS011;39400;49.744;7.012;2023-07-29T00:42:46;8.55;;;5.60;;
33453;SDS011;39400;49.744;7.012;2023-07-29T00:45:13;10.10;;;5.85;;
33453;SDS011;39400;49.744;7.012;2023-07-29T00:47:38;8.88;;;4.65;;
33453;SDS011;39400;49.744;7.012;2023-07-29T00:50:04;4.88;;;4.30;;
33453;SDS011;39400;49.744;7.012;2023-07-29T00:52:30;5.18;;;3.85;;
33453;SDS011;39400;49.744;7.012;2023-07-29T00:54:56;5.05;;;3.88;;
33453;SDS011;39400;49.744;7.012;2023-07-29T00:57:21;4.38;;;3.60;;
33453;SDS011;39400;49.744;7.012;2023-07-29T00:59:47;4.75;;;3.75;;
33453;SDS011;39400;49.744;7.012;2023-07-29T01:02:12;4.38;;;2.80;;
33453;SDS011;39400;49.744;7.012;2023-07-29T01:04:38;8.07;;;4.50;;
33453;SDS011;39400;49.744;7.012;2023-07-29T01:09:47;6.05;;;2.88;;
33453;SDS011;39400;49.744;7.012;2023-07-29T01:15:19;3.60;;;3.00;;
33453;SDS011;39400;49.744;7.012;2023-07-29T01:17:51;4.82;;;3.58;;
33453;SDS011;39400;49.744;7.012;2023-07-29T01:20:19;4.03;;;3.58;;
33453;SDS011;39400;49.744;7.012;2023-07-29T01:22:44;5.03;;;4.07;;
33453;SDS011;39400;49.744;7.012;2023-07-29T01:25:10;4.22;;;2.97;;
33453;SDS011;39400;49.744;7.012;2023-07-29T01:27:35;3.65;;;3.00;;
33453;SDS011;39400;49.744;7.012;2023-07-29T01:30:01;5.35;;;3.20;;
33453;SDS011;39400;49.744;7.012;2023-07-29T01:32:39;3.75;;;2.75;;
33453;SDS011;39400;49.744;7.012;2023-07-29T01:35:17;2.78;;;2.53;;
33453;SDS011;39400;49.744;7.012;2023-07-29T01:37:51;3.05;;;2.70;;
33453;SDS011;39400;49.744;7.012;2023-07-29T01:40:22;4.93;;;2.92;;
33453;SDS011;39400;49.744;7.012;2023-07-29T01:42:52;3.25;;;2.47;;
33453;SDS011;39400;49.744;7.012;2023-07-29T01:45:18;3.17;;;2.65;;
33453;SDS011;39400;49.744;7.012;2023-07-29T01:47:43;3.50;;;2.75;;
33453;SDS011;39400;49.744;7.012;2023-07-29T01:50:09;3.13;;;2.33;;
33453;SDS011;39400;49.744;7.012;2023-07-29T01:52:34;3.63;;;2.60;;
33453;SDS011;39400;49.744;7.012;2023-07-29T01:55:00;2.97;;;2.50;;
33453;SDS011;39400;49.744;7.012;2023-07-29T01:57:26;5.00;;;2.45;;
33453;SDS011;39400;49.744;7.012;2023-07-29T01:59:52;3.05;;;2.13;;
33453;SDS011;39400;49.744;7.012;2023-07-29T02:02:17;4.28;;;2.63;;
33453;SDS011;39400;49.744;7.012;2023-07-29T02:04:42;3.67;;;2.17;;
33453;SDS011;39400;49.744;7.012;2023-07-29T02:07:08;2.95;;;2.20;;
33453;SDS011;39400;49.744;7.012;2023-07-29T02:09:33;3.45;;;2.00;;
33453;SDS011;39400;49.744;7.012;2023-07-29T02:11:58;4.43;;;2.60;;
33453;SDS011;39400;49.744;7.012;2023-07-29T02:14:24;2.67;;;1.80;;
33453;SDS011;39400;49.744;7.012;2023-07-29T02:16:49;4.20;;;2.10;;
33453;SDS011;39400;49.744;7.012;2023-07-29T02:19:14;4.90;;;1.67;;
33453;SDS011;39400;49.744;7.012;2023-07-29T02:21:40;3.75;;;1.90;;
33453;SDS011;39400;49.744;7.012;2023-07-29T02:24:05;3.83;;;2.40;;
33453;SDS011;39400;49.744;7.012;2023-07-29T02:26:31;6.22;;;2.22;;
33453;SDS011;39400;49.744;7.012;2023-07-29T02:28:56;3.22;;;2.00;;
33453;SDS011;39400;49.744;7.012;2023-07-29T02:31:22;4.40;;;2.00;;
33453;SDS011;39400;49.744;7.012;2023-07-29T02:33:49;4.25;;;2.53;;
33453;SDS011;39400;49.744;7.012;2023-07-29T02:36:15;2.22;;;1.77;;
33453;SDS011;39400;49.744;7.012;2023-07-29T02:38:41;2.17;;;1.70;;
33453;SDS011;39400;49.744;7.012;2023-07-29T02:41:10;2.85;;;2.20;;
33453;SDS011;39400;49.744;7.012;2023-07-29T02:43:35;4.50;;;1.80;;
33453;SDS011;39400;49.744;7.012;2023-07-29T02:46:01;5.88;;;1.92;;
33453;SDS011;39400;49.744;7.012;2023-07-29T02:48:27;2.95;;;2.15;;
33453;SDS011;39400;49.744;7.012;2023-07-29T02:50:53;2.03;;;1.65;;
33453;SDS011;39400;49.744;7.012;2023-07-29T02:53:19;2.33;;;1.83;;
33453;SDS011;39400;49.744;7.012;2023-07-29T02:55:44;4.60;;;2.00;;
33453;SDS011;39400;49.744;7.012;2023-07-29T02:58:09;2.70;;;1.98;;
33453;SDS011;39400;49.744;7.012;2023-07-29T03:00:35;2.85;;;1.70;;
33453;SDS011;39400;49.744;7.012;2023-07-29T03:03:00;3.45;;;1.88;;
33453;SDS011;39400;49.744;7.012;2023-07-29T03:05:28;2.97;;;1.58;;
33453;SDS011;39400;49.744;7.012;2023-07-29T03:07:54;4.18;;;1.90;;
33453;SDS011;39400;49.744;7.012;2023-07-29T03:10:19;4.95;;;1.85;;
33453;SDS011;39400;49.744;7.012;2023-07-29T03:12:45;2.33;;;1.80;;
33453;SDS011;39400;49.744;7.012;2023-07-29T03:15:10;5.85;;;1.98;;
33453;SDS011;39400;49.744;7.012;2023-07-29T03:17:36;8.90;;;2.17;;
33453;SDS011;39400;49.744;7.012;2023-07-29T03:20:01;2.65;;;1.75;;
33453;SDS011;39400;49.744;7.012;2023-07-29T03:22:27;6.43;;;2.80;;
33453;SDS011;39400;49.744;7.012;2023-07-29T03:24:52;2.92;;;2.13;;
33453;SDS011;39400;49.744;7.012;2023-07-29T03:27:17;5.57;;;2.55;;
33453;SDS011;39400;49.744;7.012;2023-07-29T03:29:43;9.23;;;1.98;;
33453;SDS011;39400;49.744;7.012;2023-07-29T03:32:08;3.95;;;2.10;;
33453;SDS011;39400;49.744;7.012;2023-07-29T03:34:33;3.88;;;2.00;;
33453;SDS011;39400;49.744;7.012;2023-07-29T03:37:00;2.70;;;1.95;;
33453;SDS011;39400;49.744;7.012;2023-07-29T03:39:25;2.58;;;1.80;;
33453;SDS011;39400;49.744;7.012;2023-07-29T03:41:51;5.93;;;2.92;;
33453;SDS011;39400;49.744;7.012;2023-07-29T03:44:16;4.50;;;2.03;;
33453;SDS011;39400;49.744;7.012;2023-07-29T03:46:41;4.80;;;2.22;;
33453;SDS011;39400;49.744;7.012;2023-07-29T03:49:08;3.15;;;2.50;;
33453;SDS011;39400;49.744;7.012;2023-07-29T03:51:33;6.03;;;2.00;;
33453;SDS011;39400;49.744;7.012;2023-07-29T03:53:59;2.80;;;2.13;;
33453;SDS011;39400;49.744;7.012;2023-07-29T03:56:24;2.45;;;1.85;;
33453;SDS011;39400;49.744;7.012;2023-07-29T03:58:49;2.33;;;1.60;;
33453;SDS011;39400;49.744;7.012;2023-07-29T04:01:15;2.88;;;1.77;;
33453;SDS011;39400;49.744;7.012;2023-07-29T04:03:40;3.97;;;2.17;;
33453;SDS011;39400;49.744;7.012;2023-07-29T04:06:06;2.92;;;2.28;;
33453;SDS011;39400;49.744;7.012;2023-07-29T04:08:31;2.42;;;2.10;;
33453;SDS011;39400;49.744;7.012;2023-07-29T04:10:57;4.90;;;2.17;;
33453;SDS011;39400;49.744;7.012;2023-07-29T04:13:22;6.38;;;2.75;;
33453;SDS011;39400;49.744;7.012;2023-07-29T04:15:48;8.20;;;1.98;;
33453;SDS011;39400;49.744;7.012;2023-07-29T04:18:13;15.27;;;4.07;;
33453;SDS011;39400;49.744;7.012;2023-07-29T04:20:39;9.73;;;3.40;;
33453;SDS011;39400;49.744;7.012;2023-07-29T04:23:04;26.92;;;3.42;;
33453;SDS011;39400;49.744;7.012;2023-07-29T04:25:30;2.65;;;1.33;;
33453;SDS011;39400;49.744;7.012;2023-07-29T04:27:55;0.95;;;0.73;;
33453;SDS011;39400;49.744;7.012;2023-07-29T04:30:20;0.90;;;0.70;;
33453;SDS011;39400;49.744;7.012;2023-07-29T04:32:46;2.05;;;0.90;;
33453;SDS011;39400;49.744;7.012;2023-07-29T04:35:11;1.05;;;0.75;;
33453;SDS011;39400;49.744;7.012;2023-07-29T04:37:36;1.27;;;0.77;;
33453;SDS011;39400;49.744;7.012;2023-07-29T04:40:02;2.20;;;1.00;;
33453;SDS011;39400;49.744;7.012;2023-07-29T04:42:27;1.55;;;0.82;;
33453;SDS011;39400;49.744;7.012;2023-07-29T04:44:52;1.98;;;0.73;;
33453;SDS011;39400;49.744;7.012;2023-07-29T04:47:18;1.45;;;0.80;;
33453;SDS011;39400;49.744;7.012;2023-07-29T04:49:43;1.38;;;0.47;;
33453;SDS011;39400;49.744;7.012;2023-07-29T04:52:09;3.28;;;0.65;;
33453;SDS011;39400;49.744;7.012;2023-07-29T04:54:34;0.90;;;0.70;;
33453;SDS011;39400;49.744;7.012;2023-07-29T04:56:59;0.80;;;0.68;;
33453;SDS011;39400;49.744;7.012;2023-07-29T04:59:37;1.70;;;0.70;;
33453;SDS011;39400;49.744;7.012;2023-07-29T05:02:02;1.55;;;0.80;;
33453;SDS011;39400;49.744;7.012;2023-07-29T05:04:28;3.53;;;0.70;;
33453;SDS011;39400;49.744;7.012;2023-07-29T05:06:53;4.22;;;1.10;;
33453;SDS011;39400;49.744;7.012;2023-07-29T05:09:19;1.88;;;0.73;;
33453;SDS011;39400;49.744;7.012;2023-07-29T05:11:44;1.98;;;0.68;;
33453;SDS011;39400;49.744;7.012;2023-07-29T05:14:09;0.43;;;0.40;;
33453;SDS011;39400;49.744;7.012;2023-07-29T05:16:35;0.30;;;0.30;;
33453;SDS011;39400;49.744;7.012;2023-07-29T05:19:01;0.40;;;0.40;;
33453;SDS011;39400;49.744;7.012;2023-07-29T05:21:26;1.80;;;0.63;;
33453;SDS011;39400;49.744;7.012;2023-07-29T05:23:51;2.92;;;0.68;;
33453;SDS011;39400;49.744;7.012;2023-07-29T05:26:17;1.48;;;0.73;;
33453;SDS011;39400;49.744;7.012;2023-07-29T05:28:42;5.68;;;1.13;;
33453;SDS011;39400;49.744;7.012;2023-07-29T05:31:07;1.65;;;0.70;;
33453;SDS011;39400;49.744;7.012;2023-07-29T05:33:33;3.13;;;0.60;;
33453;SDS011;39400;49.744;7.012;2023-07-29T05:35:58;2.03;;;0.90;;
33453;SDS011;39400;49.744;7.012;2023-07-29T05:38:23;3.33;;;0.68;;
33453;SDS011;39400;49.744;7.012;2023-07-29T05:40:49;1.30;;;0.60;;
33453;SDS011;39400;49.744;7.012;2023-07-29T05:43:14;1.52;;;0.65;;
33453;SDS011;39400;49.744;7.012;2023-07-29T05:45:40;1.45;;;0.98;;
33453;SDS011;39400;49.744;7.012;2023-07-29T05:48:06;1.95;;;0.80;;
33453;SDS011;39400;49.744;7.012;2023-07-29T05:50:31;4.07;;;0.98;;
33453;SDS011;39400;49.744;7.012;2023-07-29T05:52:56;1.92;;;1.05;;
33453;SDS011;39400;49.744;7.012;2023-07-29T05:55:22;0.65;;;0.65;;
33453;SDS011;39400;49.744;7.012;2023-07-29T05:57:47;1.30;;;0.75;;
33453;SDS011;39400;49.744;7.012;2023-07-29T06:00:12;5.60;;;1.63;;
33453;SDS011;39400;49.744;7.012;2023-07-29T06:02:38;2.47;;;1.00;;
33453;SDS011;39400;49.744;7.012;2023-07-29T06:05:03;2.70;;;0.70;;
33453;SDS011;39400;49.744;7.012;2023-07-29T06:07:29;2.75;;;1.02;;
33453;SDS011;39400;49.744;7.012;2023-07-29T06:09:54;2.85;;;1.50;;
33453;SDS011;39400;49.744;7.012;2023-07-29T06:12:19;4.63;;;1.45;;
33453;SDS011;39400;49.744;7.012;2023-07-29T06:14:45;1.90;;;0.90;;
33453;SDS011;39400;49.744;7.012;2023-07-29T06:17:10;1.75;;;1.08;;
33453;SDS011;39400;49.744;7.012;2023-07-29T06:19:35;2.35;;;1.10;;
33453;SDS011;39400;49.744;7.012;2023-07-29T06:22:01;1.17;;;0.80;;
33453;SDS011;39400;49.744;7.012;2023-07-29T06:24:26;1.77;;;0.93;;
33453;SDS011;39400;49.744;7.012;2023-07-29T06:26:52;4.80;;;1.10;;
33453;SDS011;39400;49.744;7.012;2023-07-29T06:29:17;1.77;;;0.82;;
33453;SDS011;39400;49.744;7.012;2023-07-29T06:31:42;2.28;;;1.23;;
33453;SDS011;39400;49.744;7.012;2023-07-29T06:34:07;3.50;;;1.15;;
33453;SDS011;39400;49.744;7.012;2023-07-29T06:36:33;3.97;;;1.20;;
33453;SDS011;39400;49.744;7.012;2023-07-29T06:38:58;0.90;;;0.75;;
33453;SDS011;39400;49.744;7.012;2023-07-29T06:41:24;2.97;;;0.85;;
33453;SDS011;39400;49.744;7.012;2023-07-29T06:43:50;1.17;;;0.90;;
33453;SDS011;39400;49.744;7.012;2023-07-29T06:46:15;1.75;;;0.90;;
33453;SDS011;39400;49.744;7.012;2023-07-29T06:48:40;1.73;;;1.13;;
33453;SDS011;39400;49.744;7.012;2023-07-29T06:51:06;1.60;;;1.30;;
33453;SDS011;39400;49.744;7.012;2023-07-29T06:53:31;1.75;;;1.20;;
33453;SDS011;39400;49.744;7.012;2023-07-29T06:55:56;4.95;;;1.38;;
33453;SDS011;39400;49.744;7.012;2023-07-29T06:58:22;2.35;;;1.25;;
33453;SDS011;39400;49.744;7.012;2023-07-29T07:00:47;3.58;;;1.30;;
33453;SDS011;39400;49.744;7.012;2023-07-29T07:03:12;1.58;;;1.10;;
33453;SDS011;39400;49.744;7.012;2023-07-29T07:05:38;2.03;;;1.23;;
33453;SDS011;39400;49.744;7.012;2023-07-29T07:08:03;1.42;;;1.10;;
33453;SDS011;39400;49.744;7.012;2023-07-29T07:10:28;2.42;;;1.48;;
33453;SDS011;39400;49.744;7.012;2023-07-29T07:12:54;3.65;;;1.50;;
33453;SDS011;39400;49.744;7.012;2023-07-29T07:15:19;2.20;;;1.58;;
33453;SDS011;39400;49.744;7.012;2023-07-29T07:17:44;1.88;;;1.30;;
33453;SDS011;39400;49.744;7.012;2023-07-29T07:20:10;1.83;;;1.20;;
33453;SDS011;39400;49.744;7.012;2023-07-29T07:22:36;2.50;;;1.35;;
33453;SDS011;39400;49.744;7.012;2023-07-29T07:25:01;3.28;;;1.55;;
33453;SDS011;39400;49.744;7.012;2023-07-29T07:27:26;2.45;;;1.40;;
33453;SDS011;39400;49.744;7.012;2023-07-29T07:29:52;2.88;;;1.40;;
33453;SDS011;39400;49.744;7.012;2023-07-29T07:32:17;2.97;;;1.27;;
33453;SDS011;39400;49.744;7.012;2023-07-29T07:34:42;2.60;;;1.60;;
33453;SDS011;39400;49.744;7.012;2023-07-29T07:37:08;3.97;;;1.17;;
33453;SDS011;39400;49.744;7.012;2023-07-29T07:39:33;1.80;;;1.08;;
33453;SDS011;39400;49.744;7.012;2023-07-29T07:41:58;1.15;;;1.02;;
33453;SDS011;39400;49.744;7.012;2023-07-29T07:44:24;2.30;;;1.35;;
33453;SDS011;39400;49.744;7.012;2023-07-29T07:46:49;1.65;;;1.25;;
33453;SDS011;39400;49.744;7.012;2023-07-29T07:49:14;3.88;;;1.42;;
33453;SDS011;39400;49.744;7.012;2023-07-29T07:51:39;1.92;;;1.50;;
33453;SDS011;39400;49.744;7.012;2023-07-29T07:54:05;2.28;;;1.70;;
33453;SDS011;39400;49.744;7.012;2023-07-29T07:56:30;2.55;;;1.55;;
33453;SDS011;39400;49.744;7.012;2023-07-29T07:58:55;1.70;;;1.40;;
33453;SDS011;39400;49.744;7.012;2023-07-29T08:01:21;1.55;;;1.30;;
33453;SDS011;39400;49.744;7.012;2023-07-29T08:03:46;6.85;;;1.65;;
33453;SDS011;39400;49.744;7.012;2023-07-29T08:06:11;1.42;;;1.20;;
33453;SDS011;39400;49.744;7.012;2023-07-29T08:08:37;4.43;;;2.08;;
33453;SDS011;39400;49.744;7.012;2023-07-29T08:11:02;4.32;;;1.92;;
33453;SDS011;39400;49.744;7.012;2023-07-29T08:13:27;2.08;;;1.88;;
33453;SDS011;39400;49.744;7.012;2023-07-29T08:15:52;3.13;;;1.88;;
33453;SDS011;39400;49.744;7.012;2023-07-29T08:18:18;2.70;;;1.98;;
33453;SDS011;39400;49.744;7.012;2023-07-29T08:23:18;5.60;;;2.13;;
33453;SDS011;39400;49.744;7.012;2023-07-29T08:25:43;5.28;;;2.15;;
33453;SDS011;39400;49.744;7.012;2023-07-29T08:28:08;2.60;;;2.40;;
33453;SDS011;39400;49.744;7.012;2023-07-29T08:30:34;5.28;;;2.47;;
33453;SDS011;39400;49.744;7.012;2023-07-29T08:32:59;3.67;;;2.70;;
33453;SDS011;39400;49.744;7.012;2023-07-29T08:35:24;2.50;;;2.20;;
33453;SDS011;39400;49.744;7.012;2023-07-29T08:37:49;1.75;;;1.38;;
33453;SDS011;39400;49.744;7.012;2023-07-29T08:40:15;4.22;;;1.55;;
33453;SDS011;39400;49.744;7.012;2023-07-29T08:42:40;2.38;;;1.75;;
33453;SDS011;39400;49.744;7.012;2023-07-29T08:45:07;4.10;;;1.40;;
33453;SDS011;39400;49.744;7.012;2023-07-29T08:47:32;3.00;;;1.65;;
33453;SDS011;39400;49.744;7.012;2023-07-29T08:49:58;3.38;;;2.20;;
33453;SDS011;39400;49.744;7.012;2023-07-29T08:52:26;6.05;;;1.95;;
33453;SDS011;39400;49.744;7.012;2023-07-29T08:54:52;2.20;;;2.00;;
33453;SDS011;39400;49.744;7.012;2023-07-29T08:57:18;1.92;;;1.50;;
33453;SDS011;39400;49.744;7.012;2023-07-29T08:59:45;5.38;;;2.17;;
33453;SDS011;39400;49.744;7.012;2023-07-29T09:02:11;2.20;;;1.52;;
33453;SDS011;39400;49.744;7.012;2023-07-29T09:04:36;2.75;;;1.88;;
33453;SDS011;39400;49.744;7.012;2023-07-29T09:07:02;2.97;;;2.38;;
33453;SDS011;39400;49.744;7.012;2023-07-29T09:09:28;5.93;;;2.72;;
33453;SDS011;39400;49.744;7.012;2023-07-29T09:11:53;3.40;;;2.72;;
33453;SDS011;39400;49.744;7.012;2023-07-29T09:14:18;5.90;;;2.95;;
33453;SDS011;39400;49.744;7.012;2023-07-29T09:16:44;3.85;;;3.00;;
33453;SDS011;39400;49.744;7.012;2023-07-29T09:19:11;3.13;;;2.60;;
33453;SDS011;39400;49.744;7.012;2023-07-29T09:21:38;2.35;;;1.83;;
33453;SDS011;39400;49.744;7.012;2023-07-29T09:24:04;2.83;;;1.98;;
33453;SDS011;39400;49.744;7.012;2023-07-29T09:26:30;1.80;;;1.38;;
33453;SDS011;39400;49.744;7.012;2023-07-29T09:28:56;8.02;;;1.55;;
33453;SDS011;39400;49.744;7.012;2023-07-29T09:31:23;4.78;;;2.20;;
33453;SDS011;39400;49.744;7.012;2023-07-29T09:33:55;2.47;;;1.65;;
33453;SDS011;39400;49.744;7.012;2023-07-29T09:36:22;3.30;;;2.00;;
33453;SDS011;39400;49.744;7.012;2023-07-29T09:38:47;3.08;;;1.92;;
33453;SDS011;39400;49.744;7.012;2023-07-29T09:41:13;3.40;;;1.85;;
33453;SDS011;39400;49.744;7.012;2023-07-29T09:43:40;1.58;;;1.33;;
33453;SDS011;39400;49.744;7.012;2023-07-29T09:46:05;2.88;;;1.60;;
33453;SDS011;39400;49.744;7.012;2023-07-29T09:48:38;6.50;;;1.67;;
33453;SDS011;39400;49.744;7.012;2023-07-29T09:51:11;2.15;;;1.40;;
33453;SDS011;39400;49.744;7.012;2023-07-29T09:53:43;2.28;;;1.48;;
33453;SDS011;39400;49.744;7.012;2023-07-29T09:56:10;2.88;;;2.08;;
33453;SDS011;39400;49.744;7.012;2023-07-29T09:58:37;4.10;;;1.70;;
33453;SDS011;39400;49.744;7.012;2023-07-29T10:01:04;2.47;;;1.33;;
33453;SDS011;39400;49.744;7.012;2023-07-29T10:03:30;4.32;;;1.20;;
33453;SDS011;39400;49.744;7.012;2023-07-29T10:05:56;1.73;;;1.50;;
33453;SDS011;39400;49.744;7.012;2023-07-29T10:08:26;4.25;;;1.08;;
33453;SDS011;39400;49.744;7.012;2023-07-29T10:10:52;1.33;;;1.17;;
33453;SDS011;39400;49.744;7.012;2023-07-29T10:13:19;3.42;;;1.80;;
33453;SDS011;39400;49.744;7.012;2023-07-29T10:15:44;1.38;;;1.17;;
33453;SDS011;39400;49.744;7.012;2023-07-29T10:18:10;2.25;;;1.45;;
33453;SDS011;39400;49.744;7.012;2023-07-29T10:20:36;1.33;;;1.23;;
33453;SDS011;39400;49.744;7.012;2023-07-29T10:23:03;2.28;;;1.48;;
33453;SDS011;39400;49.744;7.012;2023-07-29T10:25:43;2.85;;;1.20;;
33453;SDS011;39400;49.744;7.012;2023-07-29T10:28:12;5.30;;;1.50;;
33453;SDS011;39400;49.744;7.012;2023-07-29T10:30:40;1.38;;;1.27;;
33453;SDS011;39400;49.744;7.012;2023-07-29T10:33:06;4.70;;;1.70;;
33453;SDS011;39400;49.744;7.012;2023-07-29T10:35:32;2.45;;;1.80;;
33453;SDS011;39400;49.744;7.012;2023-07-29T10:37:58;1.63;;;1.30;;
33453;SDS011;39400;49.744;7.012;2023-07-29T10:40:24;2.17;;;1.80;;
33453;SDS011;39400;49.744;7.012;2023-07-29T10:43:03;2.30;;;1.70;;
33453;SDS011;39400;49.744;7.012;2023-07-29T10:45:38;2.63;;;1.67;;
33453;SDS011;39400;49.744;7.012;2023-07-29T10:48:05;2.38;;;1.58;;
33453;SDS011;39400;49.744;7.012;2023-07-29T10:50:51;1.80;;;1.35;;
33453;SDS011;39400;49.744;7.012;2023-07-29T10:54:09;6.72;;;1.80;;
33453;SDS011;39400;49.744;7.012;2023-07-29T10:56:36;1.48;;;1.33;;
33453;SDS011;39400;49.744;7.012;2023-07-29T10:59:22;1.65;;;1.42;;
33453;SDS011;39400;49.744;7.012;2023-07-29T11:01:57;3.85;;;2.10;;
33453;SDS011;39400;49.744;7.012;2023-07-29T11:04:24;2.88;;;1.73;;
33453;SDS011;39400;49.744;7.012;2023-07-29T11:09:39;2.40;;;1.75;;
33453;SDS011;39400;49.744;7.012;2023-07-29T11:12:35;2.33;;;1.73;;
33453;SDS011;39400;49.744;7.012;2023-07-29T11:15:12;3.25;;;1.52;;
33453;SDS011;39400;49.744;7.012;2023-07-29T11:17:43;4.43;;;1.70;;
33453;SDS011;39400;49.744;7.012;2023-07-29T11:22:34;2.88;;;1.67;;
33453;SDS011;39400;49.744;7.012;2023-07-29T11:25:01;2.40;;;1.70;;
33453;SDS011;39400;49.744;7.012;2023-07-29T11:27:26;2.78;;;1.73;;
33453;SDS011;39400;49.744;7.012;2023-07-29T11:30:02;2.85;;;1.85;;
33453;SDS011;39400;49.744;7.012;2023-07-29T11:32:29;3.35;;;2.03;;
33453;SDS011;39400;49.744;7.012;2023-07-29T11:34:54;3.20;;;1.90;;
33453;SDS011;39400;49.744;7.012;2023-07-29T11:37:20;3.40;;;2.40;;
33453;SDS011;39400;49.744;7.012;2023-07-29T11:39:45;2.92;;;1.70;;
33453;SDS011;39400;49.744;7.012;2023-07-29T11:42:11;2.78;;;1.80;;
33453;SDS011;39400;49.744;7.012;2023-07-29T11:44:36;2.40;;;1.65;;
33453;SDS011;39400;49.744;7.012;2023-07-29T11:47:02;2.75;;;2.05;;
33453;SDS011;39400;49.744;7.012;2023-07-29T11:51:57;2.17;;;1.30;;
33453;SDS011;39400;49.744;7.012;2023-07-29T11:54:23;2.80;;;1.40;;
33453;SDS011;39400;49.744;7.012;2023-07-29T11:56:48;2.28;;;1.38;;
33453;SDS011;39400;49.744;7.012;2023-07-29T11:59:13;2.53;;;1.55;;
33453;SDS011;39400;49.744;7.012;2023-07-29T12:01:39;2.33;;;1.90;;
33453;SDS011;39400;49.744;7.012;2023-07-29T12:04:05;1.80;;;1.48;;
33453;SDS011;39400;49.744;7.012;2023-07-29T12:06:30;2.85;;;1.58;;
33453;SDS011;39400;49.744;7.012;2023-07-29T12:08:56;3.80;;;1.40;;
33453;SDS011;39400;49.744;7.012;2023-07-29T12:11:22;4.32;;;1.52;;
33453;SDS011;39400;49.744;7.012;2023-07-29T12:13:48;2.45;;;1.25;;
33453;SDS011;39400;49.744;7.012;2023-07-29T12:16:16;1.50;;;1.40;;
33453;SDS011;39400;49.744;7.012;2023-07-29T12:18:42;3.92;;;1.83;;
33453;SDS011;39400;49.744;7.012;2023-07-29T12:21:08;1.83;;;1.40;;
33453;SDS011;39400;49.744;7.012;2023-07-29T12:23:33;6.00;;;1.67;;
33453;SDS011;39400;49.744;7.012;2023-07-29T12:25:59;2.25;;;1.67;;
33453;SDS011;39400;49.744;7.012;2023-07-29T12:28:25;1.95;;;1.30;;
33453;SDS011;39400;49.744;7.012;2023-07-29T12:30:54;1.60;;;1.48;;
33453;SDS011;39400;49.744;7.012;2023-07-29T12:33:32;1.92;;;1.50;;
33453;SDS011;39400;49.744;7.012;2023-07-29T12:35:59;4.40;;;1.70;;
33453;SDS011;39400;49.744;7.012;2023-07-29T12:38:28;3.10;;;1.83;;
33453;SDS011;39400;49.744;7.012;2023-07-29T12:40:54;4.20;;;1.40;;
33453;SDS011;39400;49.744;7.012;2023-07-29T12:43:20;1.98;;;1.65;;
33453;SDS011;39400;49.744;7.012;2023-07-29T12:45:45;4.03;;;1.38;;
33453;SDS011;39400;49.744;7.012;2023-07-29T12:48:11;4.68;;;1.85;;
33453;SDS011;39400;49.744;7.012;2023-07-29T12:50:36;7.07;;;1.52;;
33453;SDS011;39400;49.744;7.012;2023-07-29T12:53:04;2.17;;;1.83;;
33453;SDS011;39400;49.744;7.012;2023-07-29T12:55:29;3.28;;;1.88;;
33453;SDS011;39400;49.744;7.012;2023-07-29T12:57:55;1.95;;;1.33;;
33453;SDS011;39400;49.744;7.012;2023-07-29T13:00:20;4.68;;;1.88;;
33453;SDS011;39400;49.744;7.012;2023-07-29T13:02:45;2.33;;;1.88;;
33453;SDS011;39400;49.744;7.012;2023-07-29T13:05:11;2.88;;;1.73;;
33453;SDS011;39400;49.744;7.012;2023-07-29T13:07:40;2.08;;;1.50;;
33453;SDS011;39400;49.744;7.012;2023-07-29T13:10:06;1.80;;;1.42;;
33453;SDS011;39400;49.744;7.012;2023-07-29T13:12:32;2.17;;;1.50;;
33453;SDS011;39400;49.744;7.012;2023-07-29T13:14:57;4.35;;;1.50;;
33453;SDS011;39400;49.744;7.012;2023-07-29T13:17:23;10.55;;;1.75;;
33453;SDS011;39400;49.744;7.012;2023-07-29T13:19:48;2.70;;;1.80;;
33453;SDS011;39400;49.744;7.012;2023-07-29T13:22:14;1.95;;;1.67;;
33453;SDS011;39400;49.744;7.012;2023-07-29T13:24:39;4.25;;;1.77;;
33453;SDS011;39400;49.744;7.012;2023-07-29T13:27:04;2.55;;;1.92;;
33453;SDS011;39400;49.744;7.012;2023-07-29T13:29:30;3.00;;;1.70;;
33453;SDS011;39400;49.744;7.012;2023-07-29T13:31:55;2.88;;;1.88;;
33453;SDS011;39400;49.744;7.012;2023-07-29T13:34:20;2.40;;;1.50;;
33453;SDS011;39400;49.744;7.012;2023-07-29T13:36:46;4.38;;;1.80;;
33453;SDS011;39400;49.744;7.012;2023-07-29T13:39:11;2.67;;;1.77;;
33453;SDS011;39400;49.744;7.012;2023-07-29T13:41:36;1.65;;;1.35;;
33453;SDS011;39400;49.744;7.012;2023-07-29T13:44:01;3.88;;;1.58;;
33453;SDS011;39400;49.744;7.012;2023-07-29T13:46:27;3.67;;;1.90;;
33453;SDS011;39400;49.744;7.012;2023-07-29T13:48:52;2.05;;;1.70;;
33453;SDS011;39400;49.744;7.012;2023-07-29T13:51:17;2.22;;;1.77;;
33453;SDS011;39400;49.744;7.012;2023-07-29T13:53:43;2.88;;;1.52;;
33453;SDS011;39400;49.744;7.012;2023-07-29T13:56:08;2.58;;;1.77;;
33453;SDS011;39400;49.744;7.012;2023-07-29T13:58:33;2.58;;;1.67;;
33453;SDS011;39400;49.744;7.012;2023-07-29T14:00:59;1.70;;;1.30;;
33453;SDS011;39400;49.744;7.012;2023-07-29T14:03:24;3.42;;;1.85;;
33453;SDS011;39400;49.744;7.012;2023-07-29T14:05:49;1.70;;;1.50;;
33453;SDS011;39400;49.744;7.012;2023-07-29T14:08:15;2.67;;;1.77;;
33453;SDS011;39400;49.744;7.012;2023-07-29T14:10:40;3.50;;;1.75;;
33453;SDS011;39400;49.744;7.012;2023-07-29T14:13:05;1.88;;;1.50;;
33453;SDS011;39400;49.744;7.012;2023-07-29T14:15:31;4.18;;;1.85;;
33453;SDS011;39400;49.744;7.012;2023-07-29T14:17:56;2.38;;;1.80;;
33453;SDS011;39400;49.744;7.012;2023-07-29T14:20:21;2.50;;;1.70;;
33453;SDS011;39400;49.744;7.012;2023-07-29T14:22:46;2.45;;;1.95;;
33453;SDS011;39400;49.744;7.012;2023-07-29T14:25:12;2.03;;;1.70;;
33453;SDS011;39400;49.744;7.012;2023-07-29T14:27:37;2.28;;;1.63;;
33453;SDS011;39400;49.744;7.012;2023-07-29T14:30:03;4.15;;;2.38;;
33453;SDS011;39400;49.744;7.012;2023-07-29T14:32:29;3.53;;;1.63;;
33453;SDS011;39400;49.744;7.012;2023-07-29T14:34:54;3.58;;;1.88;;
33453;SDS011;39400;49.744;7.012;2023-07-29T14:37:20;3.08;;;1.85;;
33453;SDS011;39400;49.744;7.012;2023-07-29T14:39:45;2.20;;;1.50;;
33453;SDS011;39400;49.744;7.012;2023-07-29T14:42:10;1.75;;;1.45;;
33453;SDS011;39400;49.744;7.012;2023-07-29T14:44:36;2.83;;;1.58;;
33453;SDS011;39400;49.744;7.012;2023-07-29T14:47:01;1.70;;;1.60;;
33453;SDS011;39400;49.744;7.012;2023-07-29T14:49:26;1.60;;;1.33;;
33453;SDS011;39400;49.744;7.012;2023-07-29T14:51:51;2.40;;;1.90;;
33453;SDS011;39400;49.744;7.012;2023-07-29T14:54:17;2.13;;;1.67;;
33453;SDS011;39400;49.744;7.012;2023-07-29T14:56:42;2.95;;;1.77;;
33453;SDS011;39400;49.744;7.012;2023-07-29T14:59:07;2.20;;;1.90;;